createdAt,value
2022-10-26T00:00:16.420Z,10.2
2022-10-26T00:01:19.609Z,10.2
2022-10-26T00:02:23.425Z,10.2
2022-10-26T00:03:25.992Z,10.2
2022-10-26T00:04:28.513Z,10.1
2022-10-26T00:05:31.928Z,10.1
2022-10-26T00:06:34.938Z,10.1
2022-10-26T00:07:38.549Z,10.1
2022-10-26T00:08:40.791Z,10.1
2022-10-26T00:09:43.597Z,10.1
2022-10-26T00:10:47.350Z,10.1
2022-10-26T00:11:51.222Z,10.1
2022-10-26T00:12:53.934Z,10.1
2022-10-26T00:13:56.654Z,10.1
2022-10-26T00:14:59.810Z,10.1
2022-10-26T00:16:03.062Z,10.1
2022-10-26T00:17:06.158Z,10.1
2022-10-26T00:18:08.878Z,10.1
2022-10-26T00:19:11.400Z,10.1
2022-10-26T00:20:14.489Z,10.1
2022-10-26T00:21:17.028Z,10.1
2022-10-26T00:22:20.474Z,10
2022-10-26T00:23:23.843Z,10
2022-10-26T00:24:26.084Z,10
2022-10-26T00:25:29.344Z,10
2022-10-26T00:26:32.317Z,10
2022-10-26T00:27:36.065Z,10
2022-10-26T00:28:38.966Z,10
2022-10-26T00:29:41.577Z,10
2022-10-26T00:30:45.227Z,10
2022-10-26T00:31:48.441Z,10
2022-10-26T00:32:51.232Z,10
2022-10-26T00:33:54.663Z,10
2022-10-26T00:35:21.562Z,10
2022-10-26T00:36:48.927Z,10
2022-10-26T00:37:52.841Z,10
2022-10-26T00:38:56.024Z,10
2022-10-26T00:39:58.898Z,10
2022-10-26T00:41:02.331Z,10
2022-10-26T00:42:06.102Z,10
2022-10-26T00:43:09.855Z,10
2022-10-26T00:44:12.723Z,9.9
2022-10-26T00:45:15.523Z,10
2022-10-26T00:46:18.776Z,9.9
2022-10-26T00:47:21.929Z,10
2022-10-26T00:48:25.299Z,9.9
2022-10-26T00:49:28.265Z,9.9
2022-10-26T00:50:31.448Z,9.9
2022-10-26T00:51:34.984Z,9.9
2022-10-26T00:52:38.441Z,9.9
2022-10-26T00:53:41.158Z,9.9
2022-10-26T00:54:44.622Z,9.8
2022-10-26T00:55:47.777Z,9.9
2022-10-26T00:56:50.303Z,9.8
2022-10-26T00:57:53.738Z,9.9
2022-10-26T00:58:57.563Z,9.9
2022-10-26T01:00:00.701Z,9.9
2022-10-26T01:01:04.131Z,9.9
2022-10-26T01:02:07.760Z,9.9
2022-10-26T01:03:10.193Z,9.9
2022-10-26T01:04:12.902Z,9.9
2022-10-26T01:05:16.622Z,9.9
2022-10-26T01:06:20.054Z,9.9
2022-10-26T01:07:24.006Z,9.9
2022-10-26T01:08:27.376Z,9.9
2022-10-26T01:09:30.796Z,9.9
2022-10-26T01:10:33.885Z,9.8
2022-10-26T01:11:37.221Z,9.8
2022-10-26T01:12:40.562Z,9.8
2022-10-26T01:13:44.149Z,9.8
2022-10-26T01:14:47.649Z,9.8
2022-10-26T01:15:50.521Z,9.8
2022-10-26T01:16:53.090Z,9.8
2022-10-26T01:17:56.895Z,9.8
2022-10-26T01:19:00.042Z,9.8
2022-10-26T01:20:02.832Z,9.8
2022-10-26T01:21:06.111Z,9.8
2022-10-26T01:22:08.651Z,9.8
2022-10-26T01:23:11.533Z,9.8
2022-10-26T01:24:14.712Z,9.7
2022-10-26T01:25:17.393Z,9.7
2022-10-26T01:26:20.107Z,9.7
2022-10-26T01:27:22.814Z,9.7
2022-10-26T01:28:25.806Z,9.7
2022-10-26T01:29:29.180Z,9.7
2022-10-26T01:30:32.730Z,9.7
2022-10-26T01:31:35.514Z,9.7
2022-10-26T01:32:38.226Z,9.7
2022-10-26T01:33:41.087Z,9.7
2022-10-26T01:34:44.120Z,9.7
2022-10-26T01:35:47.563Z,9.7
2022-10-26T01:36:51.367Z,9.7
2022-10-26T01:37:54.787Z,9.6
2022-10-26T01:38:57.569Z,9.6
2022-10-26T01:40:00.447Z,9.6
2022-10-26T01:41:03.237Z,9.6
2022-10-26T01:42:06.049Z,9.6
2022-10-26T01:43:09.198Z,9.6
2022-10-26T01:44:12.180Z,9.6
2022-10-26T01:45:15.943Z,9.6
2022-10-26T01:47:22.970Z,9.6
2022-10-26T01:48:25.786Z,9.6
2022-10-26T01:49:28.878Z,9.6
2022-10-26T01:50:31.472Z,9.6
2022-10-26T01:51:34.183Z,9.6
2022-10-26T01:52:36.773Z,9.6
2022-10-26T01:53:40.542Z,9.6
2022-10-26T01:54:43.079Z,9.6
2022-10-26T01:55:45.875Z,9.6
2022-10-26T01:56:49.053Z,9.6
2022-10-26T01:57:52.618Z,9.6
2022-10-26T01:58:55.964Z,9.6
2022-10-26T01:59:58.952Z,9.6
2022-10-26T02:01:02.123Z,9.6
2022-10-26T02:02:06.203Z,9.5
2022-10-26T02:03:08.155Z,9.5
2022-10-26T02:04:11.516Z,9.5
2022-10-26T02:05:14.686Z,9.5
2022-10-26T02:06:17.474Z,9.5
2022-10-26T02:07:20.192Z,9.5
2022-10-26T02:08:22.425Z,9.5
2022-10-26T02:09:24.578Z,9.5
2022-10-26T02:10:27.159Z,9.5
2022-10-26T02:11:30.037Z,9.5
2022-10-26T02:12:32.934Z,9.5
2022-10-26T02:13:35.735Z,9.5
2022-10-26T02:14:38.444Z,9.5
2022-10-26T02:15:41.030Z,9.5
2022-10-26T02:16:44.563Z,9.5
2022-10-26T02:17:50.544Z,9.5
2022-10-26T02:18:54.025Z,9.5
2022-10-26T02:19:56.746Z,9.5
2022-10-26T02:20:59.629Z,9.5
2022-10-26T02:22:02.429Z,9.4
2022-10-26T02:23:04.468Z,9.4
2022-10-26T02:25:10.634Z,9.3
2022-10-26T02:26:13.149Z,9.3
2022-10-26T02:27:16.890Z,9.3
2022-10-26T02:28:20.308Z,9.3
2022-10-26T02:29:23.484Z,9.3
2022-10-26T02:30:26.837Z,9.3
2022-10-26T02:31:30.211Z,9.3
2022-10-26T02:32:33.023Z,9.3
2022-10-26T02:33:37.387Z,9.3
2022-10-26T02:34:40.324Z,9.3
2022-10-26T02:35:43.127Z,9.3
2022-10-26T02:36:45.692Z,9.3
2022-10-26T02:37:50.119Z,9.3
2022-10-26T02:38:53.265Z,9.3
2022-10-26T02:39:56.598Z,9.3
2022-10-26T02:40:59.390Z,9.3
2022-10-26T02:42:02.779Z,9.3
2022-10-26T02:43:05.755Z,9.3
2022-10-26T02:44:08.874Z,9.3
2022-10-26T02:45:11.289Z,9.3
2022-10-26T02:46:14.144Z,9.3
2022-10-26T02:47:17.393Z,9.3
2022-10-26T02:48:21.077Z,9.3
2022-10-26T02:49:24.851Z,9.3
2022-10-26T02:50:27.995Z,9.2
2022-10-26T02:51:30.564Z,9.3
2022-10-26T02:52:33.995Z,9.3
2022-10-26T02:53:36.498Z,9.3
2022-10-26T02:54:39.636Z,9.2
2022-10-26T02:55:42.346Z,9.2
2022-10-26T02:56:45.546Z,9.2
2022-10-26T02:57:48.725Z,9.2
2022-10-26T02:58:52.159Z,9.2
2022-10-26T02:59:54.756Z,9.1
2022-10-26T03:00:58.131Z,9.1
2022-10-26T03:02:01.101Z,9.1
2022-10-26T03:03:04.273Z,9.1
2022-10-26T03:04:08.337Z,9.1
2022-10-26T03:05:12.512Z,9.1
2022-10-26T03:06:15.863Z,9.1
2022-10-26T03:07:19.425Z,9.1
2022-10-26T03:08:22.734Z,9.1
2022-10-26T03:09:27.524Z,9.1
2022-10-26T03:10:30.979Z,9.1
2022-10-26T03:11:34.053Z,9.1
2022-10-26T03:12:37.513Z,9.1
2022-10-26T03:13:40.231Z,9.1
2022-10-26T03:14:43.224Z,9
2022-10-26T03:15:46.095Z,9
2022-10-26T03:16:48.971Z,9
2022-10-26T03:17:53.147Z,8.9
2022-10-26T03:18:55.581Z,8.9
2022-10-26T03:19:58.778Z,8.9
2022-10-26T03:21:02.563Z,9
2022-10-26T03:22:05.982Z,9
2022-10-26T03:23:09.053Z,8.9
2022-10-26T03:24:12.277Z,8.9
2022-10-26T03:25:16.301Z,8.9
2022-10-26T03:26:19.674Z,8.9
2022-10-26T03:27:23.014Z,8.9
2022-10-26T03:28:26.199Z,8.9
2022-10-26T03:29:29.417Z,8.9
2022-10-26T03:30:32.548Z,8.9
2022-10-26T03:31:35.065Z,8.9
2022-10-26T03:32:38.797Z,8.9
2022-10-26T03:33:41.677Z,8.9
2022-10-26T03:34:45.177Z,8.9
2022-10-26T03:35:48.620Z,8.9
2022-10-26T03:36:51.872Z,8.9
2022-10-26T03:37:55.005Z,8.9
2022-10-26T03:38:57.952Z,8.9
2022-10-26T03:40:00.763Z,8.9
2022-10-26T03:41:04.033Z,8.9
2022-10-26T03:42:06.470Z,8.9
2022-10-26T03:43:09.544Z,8.9
2022-10-26T03:44:12.666Z,8.9
2022-10-26T03:45:15.839Z,8.9
2022-10-26T03:46:18.707Z,8.9
2022-10-26T03:47:21.502Z,8.9
2022-10-26T03:48:24.574Z,8.9
2022-10-26T03:49:27.446Z,8.9
2022-10-26T03:50:30.251Z,8.9
2022-10-26T03:51:33.794Z,8.9
2022-10-26T03:52:37.554Z,8.9
2022-10-26T03:53:40.705Z,8.9
2022-10-26T03:54:43.851Z,8.9
2022-10-26T03:55:46.371Z,8.9
2022-10-26T03:56:56.426Z,8.9
2022-10-26T03:57:59.865Z,9
2022-10-26T03:59:02.744Z,8.9
2022-10-26T04:00:05.900Z,8.9
2022-10-26T04:01:09.239Z,8.9
2022-10-26T04:02:12.723Z,8.9
2022-10-26T04:03:15.512Z,8.9
2022-10-26T04:04:18.919Z,8.9
2022-10-26T04:05:21.920Z,8.9
2022-10-26T04:06:24.241Z,8.9
2022-10-26T04:07:27.213Z,8.9
2022-10-26T04:08:31.293Z,8.9
2022-10-26T04:09:33.527Z,8.9
2022-10-26T04:10:36.861Z,8.9
2022-10-26T04:11:39.570Z,8.8
2022-10-26T04:12:43.012Z,8.9
2022-10-26T04:13:46.164Z,8.9
2022-10-26T04:14:49.607Z,8.8
2022-10-26T04:15:52.471Z,8.8
2022-10-26T04:16:55.724Z,8.8
2022-10-26T04:17:58.881Z,8.8
2022-10-26T04:19:01.769Z,8.8
2022-10-26T04:20:05.130Z,8.8
2022-10-26T04:21:08.654Z,8.9
2022-10-26T04:22:11.523Z,8.9
2022-10-26T04:23:15.701Z,8.9
2022-10-26T04:24:19.850Z,8.8
2022-10-26T04:25:22.383Z,8.8
2022-10-26T04:26:25.201Z,8.9
2022-10-26T04:27:28.542Z,8.8
2022-10-26T04:28:31.055Z,8.9
2022-10-26T04:29:34.678Z,8.8
2022-10-26T04:30:37.187Z,8.8
2022-10-26T04:31:39.921Z,8.8
2022-10-26T04:32:42.954Z,8.8
2022-10-26T04:33:45.577Z,8.8
2022-10-26T04:34:48.649Z,8.8
2022-10-26T04:35:51.913Z,8.8
2022-10-26T04:36:54.898Z,8.8
2022-10-26T04:37:58.341Z,8.8
2022-10-26T04:39:01.445Z,8.8
2022-10-26T04:41:08.812Z,8.8
2022-10-26T04:42:11.569Z,8.7
2022-10-26T04:43:15.272Z,8.7
2022-10-26T04:44:18.351Z,8.6
2022-10-26T04:45:21.254Z,8.6
2022-10-26T04:46:24.505Z,8.6
2022-10-26T04:47:27.951Z,8.6
2022-10-26T04:48:31.309Z,8.6
2022-10-26T04:49:34.721Z,8.6
2022-10-26T04:50:38.105Z,8.6
2022-10-26T04:51:41.627Z,8.6
2022-10-26T04:52:45.058Z,8.6
2022-10-26T04:53:47.636Z,8.6
2022-10-26T04:54:51.389Z,8.6
2022-10-26T04:55:55.150Z,8.6
2022-10-26T04:56:58.221Z,8.6
2022-10-26T04:58:03.698Z,8.6
2022-10-26T04:59:07.231Z,8.6
2022-10-26T05:00:10.302Z,8.5
2022-10-26T05:01:13.816Z,8.5
2022-10-26T05:02:18.376Z,8.5
2022-10-26T05:03:21.706Z,8.5
2022-10-26T05:04:24.501Z,8.5
2022-10-26T05:05:27.105Z,8.5
2022-10-26T05:06:29.427Z,8.5
2022-10-26T05:07:32.422Z,8.4
2022-10-26T05:08:35.398Z,8.5
2022-10-26T05:09:38.214Z,8.4
2022-10-26T05:10:41.395Z,8.4
2022-10-26T05:11:45.469Z,8.4
2022-10-26T05:12:48.512Z,8.4
2022-10-26T05:13:51.648Z,8.4
2022-10-26T05:14:55.265Z,8.4
2022-10-26T05:15:58.146Z,8.3
2022-10-26T05:17:01.225Z,8.4
2022-10-26T05:18:04.585Z,8.3
2022-10-26T05:19:07.297Z,8.4
2022-10-26T05:20:10.013Z,8.4
2022-10-26T05:21:13.399Z,8.3
2022-10-26T05:22:15.964Z,8.3
2022-10-26T05:23:18.676Z,8.3
2022-10-26T05:24:21.427Z,8.3
2022-10-26T05:25:24.482Z,8.3
2022-10-26T05:26:28.056Z,8.3
2022-10-26T05:27:31.823Z,8.2
2022-10-26T05:28:34.890Z,8.2
2022-10-26T05:29:37.916Z,8.2
2022-10-26T05:30:40.994Z,8.2
2022-10-26T05:31:44.636Z,8.2
2022-10-26T05:32:48.404Z,8.2
2022-10-26T05:33:51.407Z,8.3
2022-10-26T05:34:55.129Z,8.3
2022-10-26T05:35:57.658Z,8.3
2022-10-26T05:37:00.995Z,8.3
2022-10-26T05:38:02.674Z,8.3
2022-10-26T05:39:06.026Z,8.3
2022-10-26T05:40:09.019Z,8.3
2022-10-26T05:41:12.343Z,8.3
2022-10-26T05:42:15.847Z,8.2
2022-10-26T05:43:19.951Z,8.2
2022-10-26T05:44:22.666Z,8.2
2022-10-26T05:45:25.550Z,8.2
2022-10-26T05:46:28.258Z,8.2
2022-10-26T05:47:31.984Z,8.2
2022-10-26T05:48:35.710Z,8.2
2022-10-26T05:49:39.052Z,8.2
2022-10-26T05:50:41.493Z,8.2
2022-10-26T05:51:44.923Z,8.1
2022-10-26T05:52:48.268Z,8.1
2022-10-26T05:53:50.886Z,8.1
2022-10-26T05:54:54.076Z,8.1
2022-10-26T05:55:57.276Z,8.1
2022-10-26T05:57:00.352Z,8.1
2022-10-26T05:58:03.611Z,8.1
2022-10-26T05:59:07.437Z,8.1
2022-10-26T06:00:10.301Z,8.1
2022-10-26T06:01:13.885Z,8.1
2022-10-26T06:02:17.603Z,8.1
2022-10-26T06:03:21.674Z,8.1
2022-10-26T06:04:24.833Z,8.1
2022-10-26T06:05:28.007Z,8.1
2022-10-26T06:06:31.235Z,8.1
2022-10-26T06:07:34.588Z,8.1
2022-10-26T06:08:37.658Z,8
2022-10-26T06:09:41.106Z,8
2022-10-26T06:10:44.251Z,8.1
2022-10-26T06:11:47.458Z,8
2022-10-26T06:12:52.805Z,8
2022-10-26T06:13:56.257Z,8
2022-10-26T06:14:59.737Z,7.9
2022-10-26T06:16:03.244Z,7.9
2022-10-26T06:17:06.235Z,7.9
2022-10-26T06:18:09.237Z,7.9
2022-10-26T06:19:11.909Z,7.9
2022-10-26T06:20:15.159Z,7.9
2022-10-26T06:21:18.104Z,7.9
2022-10-26T06:22:21.555Z,7.9
2022-10-26T06:23:24.617Z,7.8
2022-10-26T06:24:28.062Z,7.8
2022-10-26T06:25:30.776Z,7.8
2022-10-26T06:26:33.772Z,7.8
2022-10-26T06:27:36.752Z,7.8
2022-10-26T06:28:39.817Z,7.7
2022-10-26T06:29:43.244Z,7.7
2022-10-26T06:30:46.996Z,7.7
2022-10-26T06:31:50.187Z,7.6
2022-10-26T06:33:32.120Z,7.6
2022-10-26T06:34:36.391Z,7.6
2022-10-26T06:35:39.184Z,7.6
2022-10-26T06:36:42.818Z,7.6
2022-10-26T06:37:47.211Z,7.6
2022-10-26T06:38:50.776Z,7.6
2022-10-26T06:39:56.751Z,7.6
2022-10-26T06:40:59.612Z,7.6
2022-10-26T06:42:02.524Z,7.5
2022-10-26T06:43:05.390Z,7.5
2022-10-26T06:44:08.572Z,7.5
2022-10-26T06:45:12.093Z,7.5
2022-10-26T06:46:16.008Z,7.5
2022-10-26T06:47:25.092Z,7.5
2022-10-26T06:48:27.892Z,7.6
2022-10-26T06:49:31.534Z,7.6
2022-10-26T06:50:34.521Z,7.6
2022-10-26T06:51:37.687Z,7.6
2022-10-26T06:52:40.186Z,7.6
2022-10-26T06:53:42.736Z,7.6
2022-10-26T06:54:45.616Z,7.6
2022-10-26T06:55:48.959Z,7.6
2022-10-26T06:56:52.193Z,7.6
2022-10-26T06:57:54.626Z,7.6
2022-10-26T06:59:00.371Z,7.7
2022-10-26T07:00:08.597Z,7.7
2022-10-26T07:01:12.401Z,7.7
2022-10-26T07:02:17.827Z,7.7
2022-10-26T07:03:21.743Z,7.7
2022-10-26T07:04:24.977Z,7.7
2022-10-26T07:05:28.683Z,7.7
2022-10-26T07:06:40.186Z,7.8
2022-10-26T07:07:43.454Z,7.8
2022-10-26T07:08:45.986Z,7.8
2022-10-26T07:09:48.890Z,7.8
2022-10-26T07:10:52.272Z,7.9
2022-10-26T07:11:56.345Z,7.9
2022-10-26T07:13:00.094Z,7.9
2022-10-26T07:14:03.112Z,7.9
2022-10-26T07:15:06.853Z,7.9
2022-10-26T07:16:09.573Z,8
2022-10-26T07:17:13.140Z,8
2022-10-26T07:18:16.903Z,8
2022-10-26T07:19:20.413Z,8.1
2022-10-26T07:20:23.485Z,8.1
2022-10-26T07:21:26.560Z,8
2022-10-26T07:22:29.157Z,8.1
2022-10-26T07:23:32.648Z,8.1
2022-10-26T07:24:35.892Z,8.1
2022-10-26T07:25:39.622Z,8.1
2022-10-26T07:26:42.769Z,8.2
2022-10-26T07:27:46.505Z,8.2
2022-10-26T07:28:50.614Z,8.2
2022-10-26T07:29:54.025Z,8.2
2022-10-26T07:30:57.625Z,8.2
2022-10-26T07:32:01.452Z,8.3
2022-10-26T07:33:04.588Z,8.3
2022-10-26T07:34:08.133Z,8.3
2022-10-26T07:35:11.044Z,8.3
2022-10-26T07:36:14.489Z,8.3
2022-10-26T07:37:17.637Z,8.4
2022-10-26T07:38:20.981Z,8.4
2022-10-26T07:39:24.070Z,8.4
2022-10-26T07:40:27.237Z,8.4
2022-10-26T07:41:30.387Z,8.4
2022-10-26T07:42:34.101Z,8.5
2022-10-26T07:43:37.449Z,8.5
2022-10-26T07:44:40.505Z,8.6
2022-10-26T07:45:43.874Z,8.6
2022-10-26T07:46:46.944Z,8.6
2022-10-26T07:47:50.028Z,8.7
2022-10-26T07:48:53.193Z,8.8
2022-10-26T07:49:57.290Z,8.8
2022-10-26T07:51:03.711Z,8.8
2022-10-26T07:52:06.778Z,8.8
2022-10-26T07:53:09.652Z,8.9
2022-10-26T07:54:13.024Z,8.9
2022-10-26T07:55:15.659Z,9
2022-10-26T07:56:19.027Z,9
2022-10-26T07:57:22.712Z,9.1
2022-10-26T07:58:26.294Z,9.1
2022-10-26T07:59:29.461Z,9.2
2022-10-26T08:00:32.997Z,9.3
2022-10-26T08:01:37.279Z,9.3
2022-10-26T08:02:40.886Z,9.4
2022-10-26T08:03:43.956Z,9.5
2022-10-26T08:04:47.510Z,9.5
2022-10-26T08:05:51.272Z,9.6
2022-10-26T08:06:54.507Z,9.6
2022-10-26T08:07:57.939Z,9.7
2022-10-26T08:09:01.463Z,9.8
2022-10-26T08:10:04.352Z,9.8
2022-10-26T08:11:07.442Z,9.9
2022-10-26T08:12:10.896Z,9.9
2022-10-26T08:13:14.073Z,10
2022-10-26T08:14:17.307Z,10
2022-10-26T08:15:20.567Z,10.1
2022-10-26T08:16:23.563Z,10.1
2022-10-26T08:17:26.218Z,10.2
2022-10-26T08:18:29.639Z,10.3
2022-10-26T08:19:33.710Z,10.3
2022-10-26T08:20:37.279Z,10.4
2022-10-26T08:21:42.260Z,10.5
2022-10-26T08:22:45.704Z,10.6
2022-10-26T08:23:48.817Z,10.7
2022-10-26T08:24:52.314Z,10.7
2022-10-26T08:25:55.656Z,10.9
2022-10-26T08:26:58.365Z,10.9
2022-10-26T08:28:01.467Z,11
2022-10-26T08:29:04.545Z,11
2022-10-26T08:30:08.212Z,11.1
2022-10-26T08:31:10.728Z,11.2
2022-10-26T08:32:13.918Z,11.3
2022-10-26T08:33:17.343Z,11.4
2022-10-26T08:34:20.134Z,11.5
2022-10-26T08:35:22.442Z,11.7
2022-10-26T08:36:26.257Z,11.9
2022-10-26T08:37:30.007Z,12
2022-10-26T08:38:33.142Z,12.1
2022-10-26T08:39:36.211Z,12.1
2022-10-26T08:40:39.935Z,12.3
2022-10-26T08:41:42.814Z,12.3
2022-10-26T08:42:46.463Z,12.4
2022-10-26T08:43:49.898Z,12.4
2022-10-26T08:44:52.683Z,12.4
2022-10-26T08:45:56.055Z,12.5
2022-10-26T08:46:59.237Z,12.5
2022-10-26T08:48:02.964Z,12.7
2022-10-26T08:49:06.137Z,12.8
2022-10-26T08:50:09.218Z,12.8
2022-10-26T08:51:12.563Z,12.9
2022-10-26T08:52:15.838Z,13
2022-10-26T08:53:19.305Z,13.1
2022-10-26T08:54:22.020Z,13.3
2022-10-26T08:55:25.736Z,13.4
2022-10-26T08:56:29.006Z,13.4
2022-10-26T08:57:31.912Z,13.3
2022-10-26T08:58:35.284Z,13.4
2022-10-26T08:59:38.275Z,13.3
2022-10-26T09:00:41.837Z,13.3
2022-10-26T09:01:46.009Z,13.3
2022-10-26T09:02:48.958Z,13.4
2022-10-26T09:03:51.904Z,13.6
2022-10-26T09:04:55.076Z,13.7
2022-10-26T09:05:58.232Z,13.9
2022-10-26T09:07:01.439Z,14.1
2022-10-26T09:08:04.537Z,14.3
2022-10-26T09:09:08.646Z,14.4
2022-10-26T09:10:12.157Z,14.6
2022-10-26T09:11:15.945Z,14.5
2022-10-26T09:12:19.476Z,14.6
2022-10-26T09:13:22.933Z,14.4
2022-10-26T09:14:26.152Z,14.3
2022-10-26T09:15:28.948Z,14.1
2022-10-26T09:16:32.019Z,14.2
2022-10-26T09:17:35.107Z,14.3
2022-10-26T09:18:39.031Z,14.5
2022-10-26T09:19:42.559Z,14.6
2022-10-26T09:20:44.820Z,14.9
2022-10-26T09:21:48.217Z,14.9
2022-10-26T09:22:52.793Z,15.1
2022-10-26T09:23:56.191Z,15.3
2022-10-26T09:25:07.918Z,15.3
2022-10-26T09:26:11.404Z,15.4
2022-10-26T09:27:15.043Z,15.5
2022-10-26T09:28:19.035Z,15.5
2022-10-26T09:29:22.104Z,15.6
2022-10-26T09:30:25.472Z,15.6
2022-10-26T09:31:28.424Z,15.6
2022-10-26T09:32:31.778Z,15.6
2022-10-26T09:33:35.253Z,15.6
2022-10-26T09:34:37.962Z,15.7
2022-10-26T09:35:41.618Z,15.5
2022-10-26T09:36:44.413Z,15.6
2022-10-26T09:37:47.418Z,15.6
2022-10-26T09:38:51.807Z,15.6
2022-10-26T09:39:55.446Z,15.6
2022-10-26T09:40:59.487Z,15.7
2022-10-26T09:42:02.684Z,15.8
2022-10-26T09:43:05.959Z,16
2022-10-26T09:44:09.044Z,16.1
2022-10-26T09:45:11.858Z,16.2
2022-10-26T09:46:14.672Z,16.4
2022-10-26T09:47:17.667Z,16.5
2022-10-26T09:48:20.383Z,16.5
2022-10-26T09:49:22.893Z,16.4
2022-10-26T09:50:25.686Z,16.5
2022-10-26T09:51:29.695Z,16.7
2022-10-26T09:52:32.697Z,16.8
2022-10-26T09:53:35.779Z,17.1
2022-10-26T09:54:38.862Z,17.2
2022-10-26T09:55:42.417Z,16.9
2022-10-26T09:56:46.220Z,17
2022-10-26T09:57:49.553Z,16.9
2022-10-26T09:58:51.792Z,16.9
2022-10-26T09:59:55.059Z,16.8
2022-10-26T10:00:57.743Z,16.9
2022-10-26T10:02:02.172Z,17.1
2022-10-26T10:03:05.356Z,17.2
2022-10-26T10:04:09.152Z,17.4
2022-10-26T10:05:38.999Z,17.5
2022-10-26T10:06:55.552Z,17.5
2022-10-26T10:07:58.077Z,17.4
2022-10-26T10:09:00.564Z,17.4
2022-10-26T10:10:03.467Z,17.5
2022-10-26T10:11:06.966Z,17.5
2022-10-26T10:12:10.501Z,17.5
2022-10-26T10:13:13.666Z,17.6
2022-10-26T10:14:16.417Z,17.7
2022-10-26T10:15:19.336Z,17.8
2022-10-26T10:16:22.434Z,17.7
2022-10-26T10:17:25.537Z,17.7
2022-10-26T10:18:28.648Z,17.8
2022-10-26T10:19:31.436Z,18
2022-10-26T10:20:33.867Z,18.1
2022-10-26T10:21:37.059Z,18.1
2022-10-26T10:22:40.212Z,18.3
2022-10-26T10:23:43.295Z,18.5
2022-10-26T10:24:46.101Z,18.6
2022-10-26T10:25:48.900Z,18.6
2022-10-26T10:26:51.873Z,18.8
2022-10-26T10:27:55.354Z,18.9
2022-10-26T10:28:58.433Z,19
2022-10-26T10:30:05.866Z,19
2022-10-26T10:31:08.825Z,19.1
2022-10-26T10:32:11.373Z,19.2
2022-10-26T10:33:14.086Z,19.3
2022-10-26T10:34:17.354Z,19.3
2022-10-26T10:35:19.874Z,19.2
2022-10-26T10:36:22.594Z,19.3
2022-10-26T10:37:25.475Z,19.4
2022-10-26T10:38:28.847Z,19.5
2022-10-26T10:39:31.849Z,19.5
2022-10-26T10:40:35.006Z,19.3
2022-10-26T10:41:38.016Z,19.3
2022-10-26T10:42:41.501Z,19.3
2022-10-26T10:43:45.259Z,19.2
2022-10-26T10:44:48.395Z,19.3
2022-10-26T10:45:58.611Z,18.9
2022-10-26T10:47:02.174Z,18.8
2022-10-26T10:48:04.889Z,18.7
2022-10-26T10:49:07.886Z,18.6
2022-10-26T10:50:11.384Z,18.6
2022-10-26T10:51:14.526Z,18.7
2022-10-26T10:52:17.796Z,18.9
2022-10-26T10:53:20.527Z,18.9
2022-10-26T10:54:23.519Z,19
2022-10-26T10:55:26.791Z,19.1
2022-10-26T10:56:29.586Z,19.2
2022-10-26T10:57:32.932Z,19.4
2022-10-26T10:58:36.460Z,19.4
2022-10-26T10:59:40.421Z,19.6
2022-10-26T11:00:43.572Z,19.7
2022-10-26T11:01:47.427Z,20
2022-10-26T11:02:50.923Z,20.1
2022-10-26T11:03:54.117Z,20.1
2022-10-26T11:04:57.190Z,20.2
2022-10-26T11:06:00.175Z,20.4
2022-10-26T11:07:03.259Z,20.3
2022-10-26T11:08:06.332Z,20.5
2022-10-26T11:09:09.508Z,20.7
2022-10-26T11:10:12.861Z,20.9
2022-10-26T11:11:15.923Z,21
2022-10-26T11:12:18.867Z,21.1
2022-10-26T11:13:21.932Z,21.3
2022-10-26T11:14:25.180Z,21.2
2022-10-26T11:15:28.672Z,21
2022-10-26T11:16:31.462Z,21
2022-10-26T11:17:34.557Z,21.1
2022-10-26T11:18:37.352Z,21.1
2022-10-26T11:19:40.255Z,21
2022-10-26T11:20:43.400Z,21
2022-10-26T11:21:46.386Z,21
2022-10-26T11:22:51.539Z,21
2022-10-26T11:23:55.907Z,21.1
2022-10-26T11:24:59.049Z,21
2022-10-26T11:26:02.117Z,21.1
2022-10-26T11:27:04.910Z,21.3
2022-10-26T11:28:08.077Z,21.5
2022-10-26T11:29:10.762Z,21.4
2022-10-26T11:30:14.868Z,21.3
2022-10-26T11:31:19.004Z,21.3
2022-10-26T11:32:21.172Z,21.3
2022-10-26T11:33:24.251Z,21.3
2022-10-26T11:34:27.064Z,21.3
2022-10-26T11:35:30.236Z,21.3
2022-10-26T11:36:33.585Z,21.3
2022-10-26T11:37:36.747Z,21.2
2022-10-26T11:39:06.299Z,21.2
2022-10-26T11:40:10.335Z,21
2022-10-26T11:41:13.111Z,21.2
2022-10-26T11:42:16.534Z,21.4
2022-10-26T11:43:18.785Z,21.5
2022-10-26T11:44:21.741Z,21.6
2022-10-26T11:45:25.184Z,21.3
2022-10-26T11:46:28.941Z,21.4
2022-10-26T11:47:32.269Z,21.4
2022-10-26T11:48:35.550Z,21.4
2022-10-26T11:49:38.918Z,21.1
2022-10-26T11:50:42.008Z,20.8
2022-10-26T11:51:44.328Z,20.6
2022-10-26T11:52:48.106Z,20.5
2022-10-26T11:53:51.811Z,20.5
2022-10-26T11:54:54.347Z,20.6
2022-10-26T11:55:58.054Z,20.8
2022-10-26T11:57:02.097Z,20.9
2022-10-26T11:58:04.892Z,21
2022-10-26T11:59:07.692Z,20.7
2022-10-26T12:00:10.560Z,20.7
2022-10-26T12:01:14.934Z,20.8
2022-10-26T12:02:18.495Z,20.6
2022-10-26T12:03:21.008Z,20.8
2022-10-26T12:04:23.852Z,20.9
2022-10-26T12:05:26.567Z,21.1
2022-10-26T12:06:30.029Z,21.3
2022-10-26T12:07:32.579Z,21.4
2022-10-26T12:08:35.920Z,21.5
2022-10-26T12:09:39.919Z,21.5
2022-10-26T12:10:42.438Z,21.4
2022-10-26T12:11:46.509Z,21.5
2022-10-26T12:12:52.114Z,21.3
2022-10-26T12:13:55.788Z,21.2
2022-10-26T12:14:58.883Z,21.1
2022-10-26T12:16:06.662Z,20.9
2022-10-26T12:17:10.215Z,20.7
2022-10-26T12:18:14.252Z,20.7
2022-10-26T12:19:17.356Z,20.7
2022-10-26T12:20:20.475Z,20.6
2022-10-26T12:21:23.466Z,20.6
2022-10-26T12:22:27.277Z,20.6
2022-10-26T12:23:53.023Z,20.7
2022-10-26T12:24:56.600Z,20.7
2022-10-26T12:25:58.644Z,20.6
2022-10-26T12:27:02.443Z,20.3
2022-10-26T12:28:05.249Z,20.2
2022-10-26T12:29:08.246Z,20.3
2022-10-26T12:30:11.774Z,20.1
2022-10-26T12:31:15.252Z,20.2
2022-10-26T12:32:18.528Z,20.3
2022-10-26T12:33:22.286Z,20.2
2022-10-26T12:34:25.730Z,20.1
2022-10-26T12:35:28.901Z,19.9
2022-10-26T12:36:32.255Z,19.8
2022-10-26T12:37:38.909Z,19.9
2022-10-26T12:38:41.704Z,19.9
2022-10-26T12:39:45.063Z,19.8
2022-10-26T12:40:48.150Z,19.9
2022-10-26T12:41:50.670Z,19.9
2022-10-26T12:42:54.160Z,19.7
2022-10-26T12:43:57.610Z,19.6
2022-10-26T12:45:00.426Z,19.5
2022-10-26T12:46:03.699Z,19.5
2022-10-26T12:47:06.514Z,19.5
2022-10-26T12:48:40.657Z,19.6
2022-10-26T12:49:44.586Z,19.7
2022-10-26T12:50:47.966Z,19.7
2022-10-26T12:51:51.303Z,19.5
2022-10-26T12:52:56.304Z,19.4
2022-10-26T12:53:59.731Z,19.3
2022-10-26T12:55:03.454Z,19.3
2022-10-26T12:56:06.991Z,19.5
2022-10-26T12:57:10.715Z,19.5
2022-10-26T12:58:14.080Z,19.6
2022-10-26T12:59:18.082Z,19.7
2022-10-26T13:00:21.412Z,19.6
2022-10-26T13:01:25.353Z,19.6
2022-10-26T13:02:28.335Z,19.6
2022-10-26T13:03:32.104Z,19.6
2022-10-26T13:04:35.434Z,19.7
2022-10-26T13:05:39.463Z,19.7
2022-10-26T13:06:43.174Z,19.8
2022-10-26T13:07:45.962Z,19.7
2022-10-26T13:08:49.124Z,19.7
2022-10-26T13:09:52.481Z,19.6
2022-10-26T13:10:55.928Z,19.4
2022-10-26T13:11:58.485Z,19.3
2022-10-26T13:13:01.831Z,19.2
2022-10-26T13:14:04.545Z,19.2
2022-10-26T13:15:07.609Z,19
2022-10-26T13:16:10.400Z,19
2022-10-26T13:17:13.552Z,19.1
2022-10-26T13:18:16.632Z,19.1
2022-10-26T13:19:25.446Z,19.1
2022-10-26T13:20:28.575Z,19.2
2022-10-26T13:21:32.059Z,19.2
2022-10-26T13:22:35.785Z,19.2
2022-10-26T13:23:38.221Z,19.3
2022-10-26T13:24:41.321Z,19.3
2022-10-26T13:25:44.813Z,19.1
2022-10-26T13:26:47.685Z,19.1
2022-10-26T13:27:52.090Z,19
2022-10-26T13:28:55.669Z,19.1
2022-10-26T13:29:59.404Z,19.1
2022-10-26T13:31:03.133Z,19.1
2022-10-26T13:32:06.489Z,19.1
2022-10-26T13:33:09.022Z,19.1
2022-10-26T13:34:12.326Z,19.1
2022-10-26T13:35:15.613Z,19.2
2022-10-26T13:36:19.166Z,19.2
2022-10-26T13:37:22.929Z,19.2
2022-10-26T13:38:26.264Z,19.2
2022-10-26T13:39:29.243Z,19.2
2022-10-26T13:40:31.948Z,19.2
2022-10-26T13:41:35.698Z,19.2
2022-10-26T13:42:38.547Z,19.2
2022-10-26T13:43:41.055Z,19
2022-10-26T13:44:43.938Z,18.9
2022-10-26T13:45:47.519Z,18.8
2022-10-26T13:46:50.514Z,18.7
2022-10-26T13:47:54.675Z,18.7
2022-10-26T13:48:56.993Z,18.7
2022-10-26T13:49:59.785Z,18.6
2022-10-26T13:51:03.610Z,18.6
2022-10-26T13:52:07.102Z,18.6
2022-10-26T13:53:10.956Z,18.5
2022-10-26T13:54:14.019Z,18.5
2022-10-26T13:55:16.623Z,18.6
2022-10-26T13:56:20.065Z,18.6
2022-10-26T13:57:23.782Z,18.6
2022-10-26T13:58:26.946Z,18.7
2022-10-26T13:59:29.825Z,18.6
2022-10-26T14:00:32.835Z,18.5
2022-10-26T14:01:37.229Z,18.4
2022-10-26T14:02:40.152Z,18.4
2022-10-26T14:03:42.587Z,18.3
2022-10-26T14:04:46.045Z,18.3
2022-10-26T14:05:48.930Z,18.3
2022-10-26T14:06:52.435Z,18.2
2022-10-26T14:07:59.247Z,18.2
2022-10-26T14:09:03.018Z,18.2
2022-10-26T14:10:06.468Z,18.2
2022-10-26T14:11:09.973Z,18.2
2022-10-26T14:12:13.315Z,18.2
2022-10-26T14:13:16.538Z,18.2
2022-10-26T14:14:19.241Z,18.1
2022-10-26T14:15:22.682Z,18.1
2022-10-26T14:16:25.829Z,18.1
2022-10-26T14:17:29.294Z,18.1
2022-10-26T14:18:32.790Z,17.9
2022-10-26T14:19:36.245Z,17.8
2022-10-26T14:20:39.709Z,17.8
2022-10-26T14:21:43.053Z,17.8
2022-10-26T14:22:45.809Z,17.9
2022-10-26T14:23:49.549Z,17.9
2022-10-26T14:24:53.608Z,18
2022-10-26T14:26:01.270Z,18
2022-10-26T14:27:04.515Z,18
2022-10-26T14:28:07.854Z,18
2022-10-26T14:29:10.362Z,18